createdAt,value
2019-02-19T00:02:17.087Z,74.67
2019-02-19T00:04:45.660Z,73.50
2019-02-19T00:07:14.292Z,65.57
2019-02-19T00:09:42.874Z,65.37
2019-02-19T00:12:11.496Z,65.77
2019-02-19T00:14:40.190Z,69.33
2019-02-19T00:17:08.751Z,69.63
2019-02-19T00:19:37.370Z,65.50
2019-02-19T00:22:06.839Z,69.87
2019-02-19T00:24:35.531Z,72.83
2019-02-19T00:27:04.151Z,69.10
2019-02-19T00:29:32.788Z,69.77
2019-02-19T00:32:01.477Z,63.10
2019-02-19T00:34:30.056Z,70.80
2019-02-19T00:36:58.702Z,73.87
2019-02-19T00:39:27.393Z,61.57
2019-02-19T00:41:56.091Z,67.00
2019-02-19T00:44:24.691Z,62.40
2019-02-19T00:46:53.245Z,52.70
2019-02-19T00:49:21.929Z,57.97
2019-02-19T00:51:50.561Z,61.23
2019-02-19T00:54:19.256Z,58.67
2019-02-19T00:56:47.938Z,56.77
2019-02-19T00:59:16.499Z,65.70
2019-02-19T01:01:45.145Z,59.40
2019-02-19T01:04:13.729Z,57.03
2019-02-19T01:06:42.400Z,59.47
2019-02-19T01:09:10.980Z,52.23
2019-02-19T01:11:39.626Z,55.80
2019-02-19T01:14:08.317Z,63.50
2019-02-19T01:16:36.893Z,60.03
2019-02-19T01:19:05.542Z,58.87
2019-02-19T01:21:34.196Z,55.37
2019-02-19T01:24:02.831Z,61.47
2019-02-19T01:26:31.396Z,61.67
2019-02-19T01:29:00.078Z,51.43
2019-02-19T01:31:28.725Z,54.57
2019-02-19T01:33:57.305Z,49.80
2019-02-19T01:36:25.943Z,53.47
2019-02-19T01:38:54.519Z,56.17
2019-02-19T01:41:23.148Z,60.20
2019-02-19T01:43:51.798Z,61.67
2019-02-19T01:46:20.455Z,57.57
2019-02-19T01:48:49.068Z,59.70
2019-02-19T01:51:17.765Z,68.90
2019-02-19T01:53:46.383Z,64.83
2019-02-19T01:56:14.945Z,54.63
2019-02-19T01:58:43.561Z,57.93
2019-02-19T02:01:12.213Z,56.53
2019-02-19T02:03:40.855Z,59.50
2019-02-19T02:06:09.392Z,50.30
2019-02-19T02:08:38.090Z,50.73
2019-02-19T02:11:06.654Z,49.47
2019-02-19T02:13:35.151Z,51.33
2019-02-19T02:16:03.801Z,48.80
2019-02-19T02:18:32.479Z,51.07
2019-02-19T02:21:01.118Z,42.30
2019-02-19T02:23:29.742Z,50.67
2019-02-19T02:25:58.239Z,47.20
2019-02-19T02:28:26.837Z,52.67
2019-02-19T02:30:55.378Z,48.97
2019-02-19T02:33:23.883Z,55.13
2019-02-19T02:35:52.552Z,53.73
2019-02-19T02:38:21.065Z,54.90
2019-02-19T02:40:49.645Z,57.53
2019-02-19T02:43:18.178Z,55.93
2019-02-19T02:45:53.436Z,53.17
2019-02-19T02:48:17.079Z,49.83
2019-02-19T02:50:45.626Z,48.50
2019-02-19T02:53:14.240Z,47.33
2019-02-19T02:55:42.931Z,52.33
2019-02-19T02:58:11.546Z,50.80
2019-02-19T03:00:40.155Z,47.63
2019-02-19T03:03:08.643Z,62.20
2019-02-19T03:05:39.649Z,52.33
2019-02-19T03:08:08.553Z,58.17
2019-02-19T03:10:37.193Z,57.33
2019-02-19T03:13:05.815Z,48.87
2019-02-19T03:15:34.437Z,55.43
2019-02-19T03:18:02.973Z,60.90
2019-02-19T03:20:31.613Z,54.57
2019-02-19T03:23:00.244Z,56.23
2019-02-19T03:25:28.889Z,63.27
2019-02-19T03:27:57.536Z,54.53
2019-02-19T03:30:26.095Z,69.07
2019-02-19T03:32:54.666Z,72.97
2019-02-19T03:35:23.207Z,82.40
2019-02-19T03:37:51.782Z,86.83
2019-02-19T03:40:20.474Z,91.10
2019-02-19T03:42:48.972Z,86.50
2019-02-19T03:45:17.666Z,117.73
2019-02-19T03:47:46.308Z,121.13
2019-02-19T03:50:14.890Z,122.40
2019-02-19T03:52:43.527Z,93.03
2019-02-19T03:55:14.961Z,101.43
2019-02-19T03:57:43.460Z,75.63
2019-02-19T04:00:12.102Z,92.57
2019-02-19T04:02:40.775Z,93.63
2019-02-19T04:05:09.405Z,71.67
2019-02-19T04:07:38.109Z,65.83
2019-02-19T04:10:08.758Z,69.43
2019-02-19T04:12:37.393Z,67.83
2019-02-19T04:15:07.477Z,59.73
2019-02-19T04:17:36.120Z,54.93
2019-02-19T04:20:06.860Z,48.87
2019-02-19T04:22:35.433Z,49.23
2019-02-19T04:25:04.185Z,47.67
2019-02-19T04:27:32.767Z,43.87
2019-02-19T04:30:01.246Z,54.80
2019-02-19T04:32:29.926Z,48.40
2019-02-19T04:34:58.514Z,48.70
2019-02-19T04:37:27.117Z,55.03
2019-02-19T04:39:55.594Z,47.73
2019-02-19T04:42:24.267Z,51.80
2019-02-19T04:44:52.966Z,55.87
2019-02-19T04:47:21.646Z,51.40
2019-02-19T04:49:50.148Z,50.03
2019-02-19T04:52:18.770Z,57.67
2019-02-19T04:54:47.395Z,47.33
2019-02-19T04:57:16.067Z,47.70
2019-02-19T04:59:44.694Z,51.37
2019-02-19T05:02:13.386Z,49.00
2019-02-19T05:04:41.941Z,52.77
2019-02-19T05:07:10.579Z,50.53
2019-02-19T05:09:39.151Z,43.17
2019-02-19T05:12:07.946Z,61.03
2019-02-19T05:14:36.436Z,61.53
2019-02-19T05:17:08.058Z,68.50
2019-02-19T05:19:36.647Z,50.33
2019-02-19T05:22:05.491Z,50.03
2019-02-19T05:24:34.062Z,52.30
2019-02-19T05:27:02.741Z,55.67
2019-02-19T05:29:31.297Z,72.90
2019-02-19T05:31:59.984Z,70.77
2019-02-19T05:34:31.416Z,74.77
2019-02-19T05:37:00.105Z,71.40
2019-02-19T05:39:28.905Z,58.83
2019-02-19T05:41:57.505Z,56.40
2019-02-19T05:44:26.175Z,47.97
2019-02-19T05:46:54.858Z,52.13
2019-02-19T05:49:23.518Z,49.60
2019-02-19T05:51:52.009Z,53.63
2019-02-19T05:54:20.610Z,48.40
2019-02-19T05:56:49.099Z,50.03
2019-02-19T05:59:17.673Z,53.80
2019-02-19T06:01:46.246Z,53.10
2019-02-19T06:04:14.879Z,51.93
2019-02-19T06:06:43.503Z,291.57
2019-02-19T06:09:12.121Z,185.80
2019-02-19T06:11:40.827Z,47.17
2019-02-19T06:14:09.317Z,42.00
2019-02-19T06:16:37.883Z,42.67
2019-02-19T06:19:06.919Z,37.63
2019-02-19T06:21:35.482Z,35.37
2019-02-19T06:24:04.116Z,30.50
2019-02-19T06:26:32.739Z,34.87
2019-02-19T06:29:01.445Z,34.60
2019-02-19T06:31:33.296Z,34.00
2019-02-19T06:34:01.823Z,35.13
2019-02-19T06:36:30.490Z,30.50
2019-02-19T06:38:59.393Z,33.30
2019-02-19T06:41:30.502Z,35.33
2019-02-19T06:43:59.062Z,72.00
2019-02-19T06:46:27.622Z,31.53
2019-02-19T06:48:59.457Z,28.80
2019-02-19T06:51:28.024Z,30.70
2019-02-19T06:53:56.631Z,135.00
2019-02-19T06:56:25.369Z,39.50
2019-02-19T06:58:54.047Z,68.13
2019-02-19T07:01:24.391Z,30.43
2019-02-19T07:03:57.246Z,40.53
2019-02-19T07:06:25.844Z,36.20
2019-02-19T07:08:54.344Z,34.73
2019-02-19T07:11:22.857Z,28.37
2019-02-19T07:13:51.467Z,27.40
2019-02-19T07:16:20.108Z,27.70
2019-02-19T07:18:51.242Z,27.53
2019-02-19T07:21:19.740Z,27.03
2019-02-19T07:23:48.324Z,26.70
2019-02-19T07:26:16.959Z,29.67
2019-02-19T07:28:45.509Z,34.30
2019-02-19T07:31:14.113Z,26.23
2019-02-19T07:33:42.593Z,36.17
2019-02-19T07:36:11.106Z,27.27
2019-02-19T07:38:39.720Z,24.83
2019-02-19T07:41:08.220Z,48.53
2019-02-19T07:43:36.902Z,24.87
2019-02-19T07:46:05.658Z,31.23
2019-02-19T07:48:34.302Z,36.03
2019-02-19T07:51:05.536Z,33.33
2019-02-19T07:53:34.044Z,30.50
2019-02-19T07:56:02.613Z,31.03
2019-02-19T07:58:31.212Z,36.93
2019-02-19T08:00:59.819Z,39.93
2019-02-19T08:03:28.484Z,28.47
2019-02-19T08:05:56.978Z,37.50
2019-02-19T08:08:25.627Z,34.90
2019-02-19T08:10:54.275Z,23.93
2019-02-19T08:13:22.916Z,131.60
2019-02-19T08:15:51.552Z,29.13
2019-02-19T08:18:20.099Z,27.23
2019-02-19T08:20:49.547Z,45.63
2019-02-19T08:23:18.193Z,25.90
2019-02-19T08:25:48.486Z,27.70
2019-02-19T08:28:17.148Z,26.80
2019-02-19T08:30:46.265Z,24.13
2019-02-19T08:33:15.148Z,21.33
2019-02-19T08:35:46.117Z,28.67
2019-02-19T08:38:15.825Z,19.50
2019-02-19T08:40:45.595Z,21.90
2019-02-19T08:43:14.282Z,19.33
2019-02-19T08:45:49.038Z,19.80
2019-02-19T08:48:18.321Z,23.93
2019-02-19T08:50:47.109Z,17.07
2019-02-19T08:53:20.255Z,19.37
2019-02-19T08:55:52.592Z,30.47
2019-02-19T08:58:24.641Z,29.10
2019-02-19T09:00:57.138Z,26.17
2019-02-19T09:03:26.016Z,32.10
2019-02-19T09:05:54.711Z,25.00
2019-02-19T09:08:23.370Z,20.07
2019-02-19T09:10:52.012Z,19.02
2019-02-19T09:13:20.764Z,20.92
2019-02-19T09:15:49.541Z,17.52
2019-02-19T09:18:18.320Z,19.37
2019-02-19T09:20:47.063Z,18.12
2019-02-19T09:23:15.656Z,18.45
2019-02-19T09:25:44.429Z,30.10
2019-02-19T09:28:13.097Z,19.90
2019-02-19T09:30:41.921Z,21.23
2019-02-19T09:33:10.594Z,36.73
2019-02-19T09:35:43.122Z,23.02
2019-02-19T09:38:14.538Z,27.02
2019-02-19T09:40:43.813Z,43.10
2019-02-19T09:43:12.548Z,17.27
2019-02-19T09:45:44.063Z,13.90
2019-02-19T09:48:12.806Z,17.87
2019-02-19T09:50:41.639Z,16.67
2019-02-19T09:53:10.238Z,23.35
2019-02-19T09:55:39.723Z,28.70
2019-02-19T09:58:08.503Z,29.60
2019-02-19T10:00:37.299Z,34.83
2019-02-19T10:03:06.103Z,21.52
2019-02-19T10:05:34.828Z,21.05
2019-02-19T10:08:03.580Z,22.32
2019-02-19T10:10:32.093Z,23.38
2019-02-19T10:13:00.713Z,24.23
2019-02-19T10:15:29.352Z,28.52
2019-02-19T10:17:57.962Z,23.40
2019-02-19T10:20:26.525Z,22.67
2019-02-19T10:22:55.066Z,23.32
2019-02-19T10:25:23.702Z,23.73
2019-02-19T10:27:52.325Z,22.30
2019-02-19T10:30:21.262Z,31.07
2019-02-19T10:32:49.786Z,22.37
2019-02-19T10:35:18.879Z,23.90
2019-02-19T10:37:51.886Z,21.23
2019-02-19T10:40:21.937Z,25.92
2019-02-19T10:42:50.502Z,21.17
2019-02-19T10:45:24.171Z,27.10
2019-02-19T10:47:52.893Z,24.82
2019-02-19T10:50:25.976Z,23.60
2019-02-19T10:52:54.869Z,24.63
2019-02-19T10:55:23.604Z,29.63
2019-02-19T10:57:54.029Z,30.08
2019-02-19T11:00:23.650Z,22.55
2019-02-19T11:02:52.389Z,20.32
2019-02-19T11:05:21.127Z,18.15
2019-02-19T11:07:49.760Z,26.55
2019-02-19T11:10:18.596Z,22.10
2019-02-19T11:12:47.256Z,25.85
2019-02-19T11:15:17.524Z,24.32
2019-02-19T11:17:46.390Z,19.57
2019-02-19T11:20:18.074Z,21.00
2019-02-19T11:22:46.755Z,18.65
2019-02-19T11:25:15.476Z,20.17
2019-02-19T11:27:44.172Z,35.43
2019-02-19T11:30:15.648Z,16.45
2019-02-19T11:32:44.286Z,18.55
2019-02-19T11:35:13.082Z,14.28
2019-02-19T11:37:41.751Z,18.70
2019-02-19T11:40:12.262Z,17.92
2019-02-19T11:42:44.005Z,18.65
2019-02-19T11:45:15.266Z,19.77
2019-02-19T11:47:43.973Z,18.75
2019-02-19T11:50:13.262Z,17.92
2019-02-19T11:52:42.076Z,20.02
2019-02-19T11:55:13.156Z,22.70
2019-02-19T11:57:41.890Z,15.83
2019-02-19T12:00:14.625Z,15.23
2019-02-19T12:02:43.432Z,15.88
2019-02-19T12:05:12.190Z,15.08
2019-02-19T12:07:41.015Z,12.45
2019-02-19T12:10:11.908Z,15.25
2019-02-19T12:12:40.572Z,13.53
2019-02-19T12:15:14.101Z,15.93
2019-02-19T12:17:42.738Z,15.43
2019-02-19T12:20:13.569Z,23.47
2019-02-19T12:22:42.199Z,91.63
2019-02-19T12:25:11.164Z,15.10
2019-02-19T12:27:39.916Z,19.48
2019-02-19T12:30:14.280Z,18.82
2019-02-19T12:32:42.962Z,18.27
2019-02-19T12:35:11.732Z,11.68
2019-02-19T12:37:40.394Z,12.78
2019-02-19T12:40:12.822Z,12.93
2019-02-19T12:42:41.812Z,12.37
2019-02-19T12:45:14.272Z,12.85
2019-02-19T12:47:45.686Z,15.35
2019-02-19T12:50:18.736Z,12.88
2019-02-19T12:52:47.507Z,16.87
2019-02-19T12:55:16.256Z,10.80
2019-02-19T12:57:45.022Z,12.95
2019-02-19T13:00:18.596Z,15.25
2019-02-19T13:02:47.298Z,19.10
2019-02-19T13:05:16.645Z,28.32
2019-02-19T13:07:47.000Z,34.23
2019-02-19T13:10:16.058Z,19.42
2019-02-19T13:12:44.700Z,13.28
2019-02-19T13:15:15.690Z,17.15
2019-02-19T13:17:45.030Z,21.82
2019-02-19T13:20:14.854Z,17.32
2019-02-19T13:22:43.569Z,18.82
2019-02-19T13:25:12.898Z,20.68
2019-02-19T13:27:47.403Z,16.93
2019-02-19T13:30:20.552Z,21.48
2019-02-19T13:32:49.227Z,15.28
2019-02-19T13:35:18.043Z,19.00
2019-02-19T13:37:46.727Z,16.55
2019-02-19T13:40:17.289Z,15.43
2019-02-19T13:42:46.003Z,23.45
2019-02-19T13:45:15.488Z,15.35
2019-02-19T13:47:44.512Z,12.07
2019-02-19T13:50:21.541Z,11.60
2019-02-19T13:52:52.231Z,13.83
2019-02-19T13:55:22.606Z,24.15
2019-02-19T13:57:51.306Z,22.35
2019-02-19T14:00:21.658Z,18.20
2019-02-19T14:02:50.797Z,14.20
2019-02-19T14:05:19.563Z,17.32
2019-02-19T14:07:51.178Z,14.83
2019-02-19T14:10:19.978Z,14.85
2019-02-19T14:12:48.855Z,13.93
2019-02-19T14:15:19.268Z,13.40
2019-02-19T14:17:48.075Z,17.17
2019-02-19T14:20:30.517Z,19.10
2019-02-19T14:23:16.075Z,25.95
2019-02-19T14:25:49.181Z,21.10
2019-02-19T14:28:39.320Z,18.70
2019-02-19T14:31:09.851Z,20.17
2019-02-19T14:33:56.339Z,19.40
2019-02-19T14:36:32.053Z,18.80
2019-02-19T14:39:18.402Z,18.52
2019-02-19T14:41:57.953Z,17.80
2019-02-19T14:44:34.020Z,26.77
2019-02-19T14:47:04.781Z,16.62
2019-02-19T14:49:49.746Z,17.12
2019-02-19T14:52:25.701Z,22.62
2019-02-19T14:54:55.996Z,24.77
2019-02-19T14:57:32.836Z,20.68
2019-02-19T15:00:19.350Z,39.03
2019-02-19T15:02:52.066Z,18.80
2019-02-19T15:05:31.289Z,23.63
2019-02-19T15:08:04.044Z,22.77
2019-02-19T15:10:43.925Z,67.13
2019-02-19T15:13:19.689Z,54.20
2019-02-19T15:15:55.872Z,33.00
2019-02-19T15:18:41.454Z,54.00
2019-02-19T15:21:28.012Z,39.53
2019-02-19T15:24:07.479Z,30.50
2019-02-19T15:26:37.841Z,44.47
2019-02-19T15:29:10.700Z,41.90
2019-02-19T15:31:43.473Z,48.47
2019-02-19T15:34:19.550Z,46.23
2019-02-19T15:36:58.909Z,37.40
2019-02-19T15:39:45.331Z,60.27
2019-02-19T16:09:01.487Z,82.60
2019-02-19T16:27:38.372Z,89.07
2019-02-19T16:30:14.617Z,233.53
2019-02-19T16:32:47.950Z,118.00
2019-02-19T16:35:29.939Z,83.77
2019-02-19T16:38:00.206Z,87.07
2019-02-19T16:40:39.395Z,81.20
2019-02-19T16:43:10.669Z,134.43
2019-02-19T16:45:43.673Z,158.77
2019-02-19T16:48:16.936Z,141.03
2019-02-19T16:50:49.638Z,85.70
2019-02-19T16:53:25.789Z,79.43
2019-02-19T16:56:01.646Z,102.43
2019-02-19T16:58:31.882Z,98.50
2019-02-19T17:01:02.160Z,105.67
2019-02-19T17:03:38.310Z,196.97
2019-02-19T17:06:17.779Z,223.93
2019-02-19T17:08:51.124Z,254.40
2019-02-19T17:11:24.185Z,251.23
2019-02-19T17:13:58.603Z,339.53
2019-02-19T17:16:44.929Z,288.17
2019-02-19T17:19:21.565Z,224.00
2019-02-19T17:21:54.770Z,213.33
2019-02-19T17:24:25.650Z,212.10
2019-02-19T17:26:55.996Z,279.20
2019-02-19T17:29:35.113Z,261.77
2019-02-19T17:32:11.353Z,252.77
2019-02-19T17:34:44.372Z,227.47
2019-02-19T17:37:33.295Z,208.20
2019-02-19T17:40:06.261Z,222.87
2019-02-19T17:42:54.998Z,186.77
2019-02-19T17:45:25.271Z,195.07
2019-02-19T17:47:58.164Z,220.87
2019-02-19T17:50:43.523Z,200.20
2019-02-19T17:53:28.841Z,231.87
2019-02-19T17:56:17.405Z,206.13
2019-02-19T17:58:47.676Z,213.00
2019-02-19T18:01:26.944Z,208.70
2019-02-19T18:04:13.530Z,219.07
2019-02-19T18:06:43.727Z,234.77
2019-02-19T18:09:33.833Z,263.00
2019-02-19T18:12:09.700Z,276.17
2019-02-19T18:14:56.200Z,246.17
2019-02-19T18:17:26.395Z,206.37
2019-02-19T18:19:54.980Z,232.90
2019-02-19T18:22:23.539Z,216.20
2019-02-19T18:24:52.204Z,200.97
2019-02-19T18:27:23.981Z,187.03
2019-02-19T18:29:52.537Z,180.03
2019-02-19T18:32:21.178Z,190.67
2019-02-19T18:34:49.812Z,166.83
2019-02-19T18:37:18.540Z,168.77
2019-02-19T18:39:47.112Z,165.43
2019-02-19T18:42:15.743Z,161.33
2019-02-19T18:44:44.296Z,147.07
2019-02-19T18:47:12.989Z,157.97
2019-02-19T18:49:44.872Z,152.67
2019-02-19T18:52:13.362Z,169.37
2019-02-19T18:54:42.048Z,158.10
2019-02-19T18:57:10.700Z,165.43
2019-02-19T18:59:39.434Z,181.90
2019-02-19T19:02:08.739Z,119.17
2019-02-19T19:04:37.383Z,104.07
2019-02-19T19:07:05.999Z,86.97
2019-02-19T19:09:39.826Z,96.57
2019-02-19T19:12:11.590Z,83.63
2019-02-19T19:14:40.279Z,82.27
2019-02-19T19:17:08.912Z,83.77
2019-02-19T19:19:37.457Z,89.60
2019-02-19T19:22:08.714Z,85.67
2019-02-19T19:24:37.268Z,85.37
2019-02-19T19:27:05.988Z,85.07
2019-02-19T19:29:34.542Z,91.97
2019-02-19T19:32:03.956Z,105.70
2019-02-19T19:34:32.644Z,101.57
2019-02-19T19:37:01.378Z,114.47
2019-02-19T19:39:30.017Z,102.90
2019-02-19T19:42:01.661Z,97.33
2019-02-19T19:44:30.324Z,109.67
2019-02-19T19:46:59.043Z,102.57
2019-02-19T19:49:27.547Z,109.17
2019-02-19T19:51:56.406Z,100.53
2019-02-19T19:54:25.124Z,97.23
2019-02-19T19:56:56.291Z,104.53
2019-02-19T19:59:27.713Z,103.57
2019-02-19T20:01:59.085Z,105.37
2019-02-19T20:04:27.704Z,111.63
2019-02-19T20:06:56.367Z,102.47
2019-02-19T20:09:27.846Z,113.77
2019-02-19T20:11:56.422Z,126.97
2019-02-19T20:14:34.186Z,114.20
2019-02-19T20:17:05.487Z,113.70
2019-02-19T20:19:34.622Z,136.13
2019-02-19T20:22:04.004Z,144.27
2019-02-19T20:24:35.542Z,145.80
2019-02-19T20:27:04.899Z,182.20
2019-02-19T20:29:33.513Z,147.23
2019-02-19T20:32:02.014Z,153.53
2019-02-19T20:34:30.569Z,156.10
2019-02-19T20:36:59.203Z,163.17
2019-02-19T20:39:30.819Z,171.80
2019-02-19T20:41:59.371Z,178.30
2019-02-19T20:44:27.936Z,171.57
2019-02-19T20:46:59.417Z,168.30
2019-02-19T20:49:27.989Z,166.53
2019-02-19T20:51:56.586Z,177.13
2019-02-19T20:54:25.380Z,168.63
2019-02-19T20:56:54.062Z,208.07
2019-02-19T20:59:25.316Z,202.07
2019-02-19T21:01:54.035Z,196.67
2019-02-19T21:04:22.603Z,186.70
2019-02-19T21:06:51.463Z,171.40
2019-02-19T21:09:25.771Z,163.83
2019-02-19T21:11:57.296Z,154.33
2019-02-19T21:14:25.997Z,161.90
2019-02-19T21:16:57.366Z,144.20
2019-02-19T21:19:26.241Z,143.67
2019-02-19T21:21:54.974Z,144.27
2019-02-19T21:24:23.620Z,135.70
2019-02-19T21:26:52.326Z,144.83
2019-02-19T21:29:21.034Z,144.87
2019-02-19T21:31:49.678Z,145.07
2019-02-19T21:34:18.320Z,145.93
2019-02-19T21:36:47.028Z,132.00
2019-02-19T21:39:15.605Z,142.70
2019-02-19T21:41:44.280Z,134.33
2019-02-19T21:44:12.832Z,135.00
2019-02-19T21:46:41.970Z,125.63
2019-02-19T21:49:10.620Z,140.60
2019-02-19T21:51:39.209Z,140.57
2019-02-19T21:54:07.943Z,143.83
2019-02-19T21:56:36.584Z,145.03
2019-02-19T21:59:05.729Z,148.17
2019-02-19T22:01:34.471Z,150.60
2019-02-19T22:04:03.201Z,156.37
2019-02-19T22:06:32.891Z,191.97
2019-02-19T22:09:01.871Z,159.07
2019-02-19T22:11:30.649Z,137.47
2019-02-19T22:13:59.313Z,131.97
2019-02-19T22:16:28.645Z,135.07
2019-02-19T22:18:57.340Z,150.27
2019-02-19T22:21:30.589Z,156.00
2019-02-19T22:23:59.291Z,164.53
2019-02-19T22:26:27.936Z,164.90
2019-02-19T22:28:57.052Z,159.93
2019-02-19T22:31:25.846Z,144.10
2019-02-19T22:33:54.479Z,138.87
2019-02-19T22:36:23.654Z,129.13
2019-02-19T22:38:52.942Z,130.10
2019-02-19T22:41:25.983Z,126.43
2019-02-19T22:43:54.691Z,126.47
2019-02-19T22:46:23.467Z,121.40
2019-02-19T22:48:52.247Z,119.67
2019-02-19T22:51:20.904Z,133.97
2019-02-19T22:53:51.294Z,131.63
2019-02-19T22:56:21.649Z,134.50
2019-02-19T22:58:50.304Z,117.90
2019-02-19T23:01:33.797Z,126.40
2019-02-19T23:04:02.515Z,128.37
2019-02-19T23:06:31.280Z,124.87
2019-02-19T23:08:59.940Z,132.67
2019-02-19T23:11:28.655Z,133.20
2019-02-19T23:13:57.361Z,120.30
2019-02-19T23:16:26.078Z,151.80
2019-02-19T23:18:54.729Z,144.53
2019-02-19T23:21:23.367Z,167.93
2019-02-19T23:23:51.989Z,163.47
2019-02-19T23:26:20.626Z,150.70
2019-02-19T23:28:49.316Z,141.00
2019-02-19T23:31:17.963Z,133.07
2019-02-19T23:33:46.953Z,131.60
2019-02-19T23:36:26.126Z,137.13
2019-02-19T23:38:54.819Z,134.80
2019-02-19T23:41:23.532Z,116.00
2019-02-19T23:43:52.267Z,117.00
2019-02-19T23:46:20.994Z,126.10
2019-02-19T23:48:49.774Z,137.50
2019-02-19T23:51:18.510Z,119.63
2019-02-19T23:53:47.291Z,109.17
2019-02-19T23:56:16.008Z,95.83
2019-02-19T23:58:47.168Z,85.13
